createdAt,value
2022-10-08T00:02:35.725Z,100.00
2022-10-08T00:07:42.683Z,100.00
2022-10-08T00:12:47.964Z,100.00
2022-10-08T00:17:55.747Z,100.00
2022-10-08T00:23:02.000Z,100.00
2022-10-08T00:28:07.427Z,100.00
2022-10-08T00:33:15.848Z,100.00
2022-10-08T00:38:20.840Z,100.00
2022-10-08T00:43:40.530Z,100.00
2022-10-08T00:48:48.445Z,100.00
2022-10-08T00:53:54.061Z,100.00
2022-10-08T00:58:58.963Z,100.00
2022-10-08T01:04:09.029Z,100.00
2022-10-08T01:09:19.541Z,100.00
2022-10-08T01:14:41.711Z,100.00
2022-10-08T01:20:23.464Z,100.00
2022-10-08T01:25:38.926Z,100.00
2022-10-08T01:30:53.231Z,100.00
2022-10-08T01:36:00.828Z,100.00
2022-10-08T01:41:11.137Z,100.00
2022-10-08T01:46:22.995Z,100.00
2022-10-08T01:51:33.122Z,100.00
2022-10-08T01:56:41.376Z,100.00
2022-10-08T02:01:57.516Z,100.00
2022-10-08T02:07:08.011Z,100.00
2022-10-08T02:12:14.535Z,100.00
2022-10-08T02:17:31.775Z,100.00
2022-10-08T02:22:40.895Z,100.00
2022-10-08T02:27:56.360Z,100.00
2022-10-08T02:33:10.305Z,100.00
2022-10-08T02:38:19.516Z,100.00
2022-10-08T02:43:30.402Z,100.00
2022-10-08T02:48:42.499Z,100.00
2022-10-08T02:53:49.298Z,100.00
2022-10-08T02:58:54.804Z,100.00
2022-10-08T03:04:07.405Z,100.00
2022-10-08T03:09:16.652Z,100.00
2022-10-08T03:14:24.005Z,100.00
2022-10-08T03:19:31.657Z,100.00
2022-10-08T03:24:38.359Z,100.00
2022-10-08T03:29:43.270Z,100.00
2022-10-08T03:34:50.665Z,100.00
2022-10-08T03:39:55.380Z,100.00
2022-10-08T03:45:01.505Z,100.00
2022-10-08T03:50:09.780Z,100.00
2022-10-08T03:55:14.942Z,100.00
2022-10-08T04:00:19.923Z,100.00
2022-10-08T04:05:27.334Z,100.00
2022-10-08T04:10:32.104Z,100.00
2022-10-08T04:15:37.037Z,100.00
2022-10-08T04:20:45.152Z,100.00
2022-10-08T04:25:53.630Z,100.00
2022-10-08T04:31:00.701Z,100.00
2022-10-08T04:36:10.682Z,100.00
2022-10-08T04:41:17.764Z,100.00
2022-10-08T04:46:24.523Z,100.00
2022-10-08T04:51:32.007Z,100.00
2022-10-08T04:56:37.729Z,100.00
2022-10-08T05:01:42.600Z,100.00
2022-10-08T05:06:49.999Z,100.00
2022-10-08T05:11:54.799Z,100.00
2022-10-08T05:16:59.569Z,100.00
2022-10-08T05:22:07.009Z,100.00
2022-10-08T05:27:11.931Z,100.00
2022-10-08T05:32:16.699Z,100.00
2022-10-08T05:37:24.028Z,100.00
2022-10-08T05:42:28.886Z,100.00
2022-10-08T05:47:33.782Z,100.00
2022-10-08T05:52:41.203Z,100.00
2022-10-08T05:57:45.996Z,100.00
2022-10-08T06:02:52.657Z,100.00
2022-10-08T06:08:00.074Z,100.00
2022-10-08T06:13:04.835Z,100.00
2022-10-08T06:18:09.668Z,100.00
2022-10-08T06:23:17.144Z,100.00
2022-10-08T06:28:21.907Z,100.00
2022-10-08T06:33:26.811Z,100.00
2022-10-08T06:38:34.190Z,100.00
2022-10-08T06:43:39.224Z,100.00
2022-10-08T06:48:45.121Z,100.00
2022-10-08T06:53:55.755Z,100.00
2022-10-08T06:59:00.864Z,100.00
2022-10-08T07:04:07.436Z,100.00
2022-10-08T07:09:14.984Z,100.00
2022-10-08T07:14:20.068Z,100.00
2022-10-08T07:19:24.833Z,100.00
2022-10-08T07:24:32.193Z,100.00
2022-10-08T07:29:37.003Z,100.00
2022-10-08T07:34:41.861Z,100.00
2022-10-08T07:39:49.290Z,100.00
2022-10-08T07:44:54.889Z,100.00
2022-10-08T07:49:59.637Z,100.00
2022-10-08T07:55:07.761Z,100.00
2022-10-08T08:00:13.982Z,100.00
2022-10-08T08:05:19.625Z,99.44
2022-10-08T08:10:27.137Z,99.81
2022-10-08T08:15:32.002Z,95.61
2022-10-08T08:20:37.303Z,94.63
2022-10-08T08:25:45.081Z,93.84
2022-10-08T08:30:49.992Z,95.58
2022-10-08T08:35:55.824Z,93.92
2022-10-08T08:41:20.937Z,90.92
2022-10-08T08:46:26.267Z,90.79
2022-10-08T08:51:31.481Z,90.48
2022-10-08T08:56:38.985Z,88.55
2022-10-08T09:01:48.026Z,87.60
2022-10-08T09:06:56.426Z,88.48
2022-10-08T09:12:11.899Z,87.02
2022-10-08T09:17:20.879Z,80.17
2022-10-08T09:22:29.015Z,81.06
2022-10-08T09:27:50.907Z,84.04
2022-10-08T09:32:56.285Z,83.34
2022-10-08T09:38:05.663Z,82.87
2022-10-08T09:43:20.174Z,84.23
2022-10-08T09:48:27.639Z,81.88
2022-10-08T09:53:37.803Z,80.91
2022-10-08T09:58:55.218Z,82.49
2022-10-08T10:04:02.249Z,84.84
2022-10-08T10:09:26.925Z,84.50
2022-10-08T10:14:44.098Z,85.42
2022-10-08T10:19:56.976Z,87.11
2022-10-08T10:25:08.628Z,87.59
2022-10-08T10:30:23.150Z,87.87
2022-10-08T10:35:31.677Z,88.70
2022-10-08T10:40:43.322Z,89.85
2022-10-08T10:45:57.883Z,89.86
2022-10-08T10:51:31.766Z,90.71
2022-10-08T10:56:42.641Z,90.56
2022-10-08T11:01:56.658Z,89.06
2022-10-08T11:07:06.833Z,84.80
2022-10-08T11:12:25.662Z,82.72
2022-10-08T11:17:44.594Z,79.60
2022-10-08T11:23:01.458Z,76.80
2022-10-08T11:28:22.926Z,76.88
2022-10-08T11:33:31.252Z,73.28
2022-10-08T11:38:43.202Z,75.61
2022-10-08T11:43:54.739Z,73.47
2022-10-08T11:49:03.963Z,75.38
2022-10-08T11:54:16.250Z,71.84
2022-10-08T11:59:43.293Z,70.90
2022-10-08T12:04:52.017Z,70.81
2022-10-08T12:10:35.288Z,71.76
2022-10-08T12:16:09.908Z,72.24
2022-10-08T12:21:51.056Z,73.56
2022-10-08T12:27:26.685Z,74.97
2022-10-08T12:32:33.250Z,76.03
2022-10-08T12:37:54.675Z,75.00
2022-10-08T12:43:18.851Z,75.81
2022-10-08T12:48:34.045Z,72.84
2022-10-08T12:53:46.537Z,73.16
2022-10-08T12:58:52.243Z,74.69
2022-10-08T13:04:21.637Z,73.64
2022-10-08T13:09:31.926Z,72.04
2022-10-08T13:14:38.837Z,71.60
2022-10-08T13:19:43.920Z,71.86
2022-10-08T13:24:51.270Z,72.90
2022-10-08T13:29:56.138Z,73.94
2022-10-08T13:35:03.011Z,76.08
2022-10-08T13:40:21.945Z,76.92
2022-10-08T13:45:28.518Z,78.36
2022-10-08T13:50:33.481Z,78.00
2022-10-08T13:55:43.812Z,78.16
2022-10-08T14:00:50.589Z,77.35
2022-10-08T14:05:55.608Z,75.04
2022-10-08T14:11:03.331Z,75.80
2022-10-08T14:16:08.520Z,81.49
2022-10-08T14:21:15.648Z,82.88
2022-10-08T14:26:22.995Z,83.57
2022-10-08T14:31:28.034Z,88.21
2022-10-08T14:36:37.947Z,90.55
2022-10-08T14:41:45.439Z,92.95
2022-10-08T14:46:51.903Z,94.57
2022-10-08T14:51:56.816Z,93.59
2022-10-08T14:57:04.283Z,94.23
2022-10-08T15:02:09.142Z,93.72
2022-10-08T15:07:13.903Z,94.90
2022-10-08T15:12:21.498Z,94.07
2022-10-08T15:17:26.479Z,96.34
2022-10-08T15:22:31.266Z,100.00
2022-10-08T15:27:38.695Z,100.00
2022-10-08T15:32:43.576Z,100.00
2022-10-08T15:37:48.830Z,100.00
2022-10-08T15:42:56.498Z,100.00
2022-10-08T15:48:01.200Z,100.00
2022-10-08T15:53:06.118Z,100.00
2022-10-08T15:58:27.366Z,100.00
2022-10-08T16:03:40.075Z,100.00
2022-10-08T16:08:46.548Z,100.00
2022-10-08T16:13:55.867Z,100.00
2022-10-08T16:19:02.997Z,100.00
2022-10-08T16:24:08.534Z,100.00
2022-10-08T16:29:17.509Z,100.00
2022-10-08T16:34:24.226Z,100.00
2022-10-08T16:39:29.193Z,100.00
2022-10-08T16:44:36.920Z,100.00
2022-10-08T16:49:41.582Z,100.00
2022-10-08T16:54:46.431Z,100.00
2022-10-08T16:59:54.959Z,100.00
2022-10-08T17:04:59.771Z,100.00
2022-10-08T17:10:04.986Z,100.00
2022-10-08T17:15:13.425Z,100.00
2022-10-08T17:20:18.418Z,100.00
2022-10-08T17:25:23.303Z,100.00
2022-10-08T17:30:32.084Z,100.00
2022-10-08T17:35:37.266Z,100.00
2022-10-08T17:40:43.945Z,100.00
2022-10-08T17:45:51.469Z,100.00
2022-10-08T17:50:56.617Z,100.00
2022-10-08T17:56:03.836Z,100.00
2022-10-08T18:01:14.332Z,100.00
2022-10-08T18:06:19.392Z,100.00
2022-10-08T18:11:24.634Z,100.00
2022-10-08T18:16:32.943Z,100.00
2022-10-08T18:21:38.476Z,100.00
2022-10-08T18:26:44.576Z,100.00
2022-10-08T18:31:53.400Z,100.00
2022-10-08T18:36:58.270Z,100.00
2022-10-08T18:42:03.375Z,100.00
2022-10-08T18:47:11.210Z,100.00
2022-10-08T18:52:21.523Z,100.00
2022-10-08T18:57:27.756Z,100.00
2022-10-08T19:02:35.370Z,100.00
2022-10-08T19:07:40.178Z,100.00
2022-10-08T19:12:45.438Z,100.00
2022-10-08T19:17:53.010Z,100.00
2022-10-08T19:22:58.186Z,100.00
2022-10-08T19:28:02.973Z,100.00
2022-10-08T19:33:10.409Z,100.00
2022-10-08T19:38:15.378Z,100.00
2022-10-08T19:43:20.110Z,100.00
2022-10-08T19:48:27.547Z,100.00
2022-10-08T19:53:33.122Z,100.00
2022-10-08T19:58:38.198Z,100.00
2022-10-08T20:03:45.948Z,100.00
2022-10-08T20:08:50.799Z,100.00
2022-10-08T20:13:57.335Z,100.00
2022-10-08T20:19:06.587Z,100.00
2022-10-08T20:24:12.005Z,100.00
2022-10-08T20:29:19.082Z,100.00
2022-10-08T20:34:31.333Z,100.00
2022-10-08T20:39:36.301Z,100.00
2022-10-08T20:44:41.146Z,100.00
2022-10-08T20:49:48.580Z,100.00
2022-10-08T20:54:53.367Z,100.00
2022-10-08T20:59:58.165Z,100.00
2022-10-08T21:05:05.575Z,100.00
2022-10-08T21:10:11.911Z,100.00
2022-10-08T21:15:16.955Z,100.00
2022-10-08T21:20:24.425Z,100.00
2022-10-08T21:25:29.255Z,100.00
2022-10-08T21:30:34.119Z,100.00
2022-10-08T21:35:41.696Z,100.00
2022-10-08T21:40:46.843Z,100.00
2022-10-08T21:45:58.839Z,100.00
2022-10-08T21:51:07.895Z,100.00
2022-10-08T21:56:16.100Z,100.00
2022-10-08T22:01:23.889Z,100.00
2022-10-08T22:06:34.207Z,100.00
2022-10-08T22:11:39.334Z,100.00
2022-10-08T22:16:44.313Z,100.00
2022-10-08T22:21:51.994Z,100.00
2022-10-08T22:26:58.415Z,100.00
2022-10-08T22:32:04.322Z,100.00
2022-10-08T22:37:11.815Z,100.00
2022-10-08T22:42:16.654Z,100.00
2022-10-08T22:47:21.672Z,100.00
2022-10-08T22:52:29.160Z,100.00
2022-10-08T22:57:33.970Z,100.00
2022-10-08T23:02:39.215Z,100.00
2022-10-08T23:07:46.858Z,100.00
2022-10-08T23:12:51.820Z,100.00
2022-10-08T23:17:56.672Z,100.00
2022-10-08T23:23:04.242Z,100.00
2022-10-08T23:28:09.279Z,100.00
2022-10-08T23:33:14.125Z,100.00
2022-10-08T23:38:21.541Z,100.00
2022-10-08T23:43:26.437Z,100.00
2022-10-08T23:48:31.272Z,100.00
2022-10-08T23:53:39.467Z,100.00
2022-10-08T23:58:44.477Z,100.00
